createdAt,value
2023-01-13T00:00:04.925Z,100978.50
2023-01-13T00:02:39.870Z,100973.66
2023-01-13T00:05:12.875Z,100973.63
2023-01-13T05:03:17.585Z,100887.29
2023-01-13T05:05:53.269Z,100886.92
2023-01-13T05:08:26.579Z,100900.53
2023-01-13T05:11:05.319Z,100900.87
2023-01-13T05:14:04.862Z,100892.56
2023-01-13T05:16:54.862Z,100901.13
2023-01-13T05:19:29.213Z,100894.56
2023-01-13T05:22:19.617Z,100897.22
2023-01-13T05:25:10.534Z,100902.94
2023-01-13T05:27:42.867Z,100899.39
2023-01-13T05:30:15.722Z,100897.10
2023-01-13T05:32:48.686Z,100895.33
2023-01-13T05:35:21.200Z,100899.31
2023-01-13T05:37:53.542Z,100896.22
2023-01-13T05:40:44.464Z,100897.06
2023-01-13T05:43:22.044Z,100897.47
2023-01-13T05:46:00.732Z,100896.98
2023-01-13T05:48:39.704Z,100898.16
2023-01-13T05:51:13.318Z,100902.44
2023-01-13T05:53:45.703Z,100905.95
2023-01-13T05:56:18.263Z,100911.23
2023-01-13T05:58:50.900Z,100909.86
2023-01-13T06:01:23.560Z,100912.11
2023-01-13T06:03:56.089Z,100922.75
2023-01-13T06:06:28.543Z,100914.66
2023-01-13T06:09:01.614Z,100919.53
2023-01-13T06:11:34.306Z,100915.50
2023-01-13T06:14:07.097Z,100921.27
2023-01-13T06:16:39.726Z,100924.66
2023-01-13T06:19:13.455Z,100919.34
2023-01-13T06:21:45.980Z,100920.11
2023-01-13T06:24:18.313Z,100916.04
2023-01-13T06:26:50.885Z,100913.34
2023-01-13T06:29:23.725Z,100918.54
2023-01-13T06:31:56.441Z,100918.91
2023-01-13T06:34:29.925Z,100919.63
2023-01-13T06:37:02.531Z,100914.72
2023-01-13T06:39:36.222Z,100922.21
2023-01-13T06:42:26.699Z,100913.38
2023-01-13T06:44:59.037Z,100919.23
2023-01-13T06:47:31.467Z,100916.36
2023-01-13T06:50:04.677Z,100916.36
2023-01-13T06:52:37.470Z,100914.11
2023-01-13T06:55:10.372Z,100916.77
2023-01-13T06:57:54.625Z,100910.93
2023-01-13T07:00:28.327Z,100910.05
2023-01-13T07:03:17.438Z,100913.55
2023-01-13T07:05:55.026Z,100908.88
2023-01-13T07:08:27.386Z,100911.01
2023-01-13T07:11:04.743Z,100922.94
2023-01-13T07:13:55.410Z,100913.75
2023-01-13T07:16:28.343Z,100920.84
2023-01-13T07:19:00.858Z,100920.72
2023-01-13T07:21:33.986Z,100918.46
2023-01-13T07:24:06.871Z,100920.28
2023-01-13T07:26:39.592Z,100916.69
2023-01-13T07:29:12.573Z,100926.77
2023-01-13T07:31:45.172Z,100935.47
2023-01-13T07:34:17.707Z,100940.99
2023-01-13T07:36:50.378Z,100931.23
2023-01-13T07:39:23.000Z,100929.90
2023-01-13T07:41:59.773Z,100931.52
2023-01-13T07:44:32.341Z,100928.28
2023-01-13T07:47:06.097Z,100928.95
2023-01-13T07:49:39.202Z,100928.83
2023-01-13T07:52:11.724Z,100923.42
2023-01-13T07:54:44.069Z,100932.28
2023-01-13T07:57:17.034Z,100924.66
2023-01-13T07:59:49.500Z,100921.07
2023-01-13T08:02:22.064Z,100928.57
2023-01-13T08:04:55.364Z,100920.14
2023-01-13T08:07:28.155Z,100926.58
2023-01-13T08:10:02.425Z,100922.09
2023-01-13T08:12:55.692Z,100926.18
2023-01-13T08:15:27.404Z,100917.79
2023-01-13T08:18:00.642Z,100916.28
2023-01-13T08:20:33.069Z,100917.09
2023-01-13T08:23:07.235Z,100921.52
2023-01-13T08:25:39.076Z,100920.19
2023-01-13T08:28:11.312Z,100912.38
2023-01-13T08:30:44.186Z,100908.42
2023-01-13T08:33:16.841Z,100911.94
2023-01-13T08:35:50.880Z,100915.58
2023-01-13T08:38:24.680Z,100916.55
2023-01-13T08:40:57.826Z,100913.05
2023-01-13T08:43:30.162Z,100906.30
2023-01-13T08:46:05.327Z,100902.79
2023-01-13T08:48:38.108Z,100907.55
2023-01-13T08:51:10.906Z,100900.39
2023-01-13T08:53:44.233Z,100897.78
2023-01-13T08:56:17.213Z,100893.65
2023-01-13T08:58:49.738Z,100897.91
2023-01-13T09:01:24.136Z,100901.02
2023-01-13T09:03:56.794Z,100899.38
2023-01-13T09:06:29.445Z,100894.98
2023-01-13T09:09:02.869Z,100903.86
2023-01-13T09:11:55.939Z,100896.36
2023-01-13T09:14:50.017Z,100898.09
2023-01-13T09:17:23.364Z,100892.36
2023-01-13T09:19:55.847Z,100887.98
2023-01-13T09:22:28.928Z,100887.89
2023-01-13T09:25:01.483Z,100890.55
2023-01-13T09:27:35.011Z,100891.48
2023-01-13T09:30:09.122Z,100895.78
2023-01-13T09:32:41.526Z,100889.34
2023-01-13T09:35:14.152Z,100889.69
2023-01-13T09:37:46.784Z,100886.50
2023-01-13T09:40:22.896Z,100882.02
2023-01-13T09:43:24.117Z,100878.70
2023-01-13T09:46:01.055Z,100878.16
2023-01-13T09:48:40.408Z,100881.10
2023-01-13T09:51:35.815Z,100883.77
2023-01-13T09:54:32.268Z,100874.79
2023-01-13T09:57:14.540Z,100872.84
2023-01-13T09:59:47.135Z,100867.20
2023-01-13T10:03:08.648Z,100872.13
2023-01-13T10:06:04.847Z,100865.88
2023-01-13T13:33:51.878Z,100833.13
2023-01-13T13:36:47.027Z,100834.00
2023-01-13T13:39:45.704Z,100828.09
2023-01-13T13:42:38.413Z,100821.81
2023-01-13T13:45:40.069Z,100831.23
2023-01-13T13:48:31.816Z,100826.91
2023-01-13T13:51:07.208Z,100827.44
2023-01-13T13:53:42.155Z,100831.09
2023-01-13T13:56:21.719Z,100832.04
2023-01-13T13:58:54.153Z,100833.02
2023-01-13T14:01:31.354Z,100834.80
2023-01-13T14:04:22.939Z,100829.47
2023-01-13T14:07:00.667Z,100840.23
2023-01-13T14:09:46.322Z,100841.36
2023-01-13T14:12:22.094Z,100832.66
2023-01-13T14:14:56.654Z,100828.23
2023-01-13T14:17:31.003Z,100817.91
2023-01-13T14:20:09.632Z,100822.70
2023-01-13T14:22:44.089Z,100828.14
2023-01-13T14:25:29.537Z,100827.73
2023-01-13T14:28:08.883Z,100819.80
2023-01-13T14:30:42.131Z,100828.77
2023-01-13T14:33:23.227Z,100830.14
2023-01-13T14:36:26.154Z,100828.77
2023-01-13T14:39:14.352Z,100827.44
2023-01-13T14:41:49.085Z,100824.03
2023-01-13T14:44:34.295Z,100825.45
2023-01-13T14:47:29.398Z,100817.86
2023-01-13T14:50:27.700Z,100819.59
2023-01-13T14:53:01.040Z,100812.98
2023-01-13T14:55:40.546Z,100816.83
2023-01-13T14:58:26.670Z,100821.70
2023-01-13T15:01:29.064Z,100822.11
2023-01-13T15:04:28.938Z,100820.42
2023-01-13T15:07:01.549Z,100809.86
2023-01-13T15:09:40.947Z,100818.20
2023-01-13T15:12:23.598Z,100811.85
2023-01-13T15:14:58.001Z,100803.11
2023-01-13T15:17:50.333Z,100812.48
2023-01-13T15:20:25.036Z,100809.81
2023-01-13T15:22:59.647Z,100806.17
2023-01-13T15:25:51.883Z,100809.59
2023-01-13T15:28:27.186Z,100802.02
2023-01-13T15:31:04.137Z,100801.09
2023-01-13T15:33:37.105Z,100805.48
2023-01-13T15:36:23.553Z,100800.29
2023-01-13T15:38:56.672Z,100814.59
2023-01-13T15:41:47.245Z,100813.84
2023-01-13T15:44:38.287Z,100809.47
2023-01-13T15:47:10.956Z,100798.72
2023-01-13T15:49:45.184Z,100812.08
2023-01-13T15:52:21.713Z,100808.47
2023-01-13T15:54:54.965Z,100810.44
2023-01-13T15:57:33.114Z,100804.81
2023-01-13T16:00:13.632Z,100804.91
2023-01-13T16:02:46.659Z,100809.78
2023-01-13T16:05:19.470Z,100809.87
2023-01-13T16:07:52.188Z,100806.73
2023-01-13T16:10:27.163Z,100804.60
2023-01-13T16:13:00.145Z,100807.22
2023-01-13T16:15:33.520Z,100800.25
2023-01-13T16:18:07.003Z,100801.59
2023-01-13T16:20:40.387Z,100799.91
2023-01-13T16:23:13.839Z,100803.45
2023-01-13T16:25:47.885Z,100800.34
2023-01-13T16:28:28.581Z,100798.39
2023-01-13T16:31:01.323Z,100797.95
2023-01-13T16:33:33.916Z,100802.78
2023-01-13T16:36:12.723Z,100803.81
2023-01-13T16:38:45.318Z,100805.77
2023-01-13T16:41:19.523Z,100814.29
2023-01-13T16:43:52.122Z,100802.76
2023-01-13T16:46:30.167Z,100807.68
2023-01-13T16:49:07.234Z,100809.49
2023-01-13T16:51:40.122Z,100797.13
2023-01-13T16:54:12.742Z,100793.13
2023-01-13T16:56:46.178Z,100803.83
2023-01-13T16:59:18.569Z,100802.98
2023-01-13T17:01:52.166Z,100794.70
2023-01-13T17:04:24.676Z,100797.84
2023-01-13T17:07:02.045Z,100801.88
2023-01-13T17:09:34.713Z,100795.18
2023-01-13T17:12:07.988Z,100801.83
2023-01-13T17:14:42.620Z,100803.02
2023-01-13T17:17:28.069Z,100797.08
2023-01-13T17:20:01.121Z,100789.05
2023-01-13T17:22:34.344Z,100796.23
2023-01-13T17:25:07.906Z,100790.91
2023-01-13T17:27:41.779Z,100796.28
2023-01-13T17:30:15.475Z,100797.66
2023-01-13T17:32:48.162Z,100805.20
2023-01-13T17:35:22.310Z,100801.69
2023-01-13T17:37:56.117Z,100803.78
2023-01-13T17:40:28.837Z,100809.02
2023-01-13T17:43:01.176Z,100805.38
2023-01-13T17:45:33.932Z,100807.98
2023-01-13T17:48:08.377Z,100803.10
2023-01-13T17:50:41.342Z,100804.34
2023-01-13T17:53:14.351Z,100803.86
2023-01-13T17:55:55.054Z,100810.56
2023-01-13T17:58:27.985Z,100812.42
2023-01-13T18:01:00.855Z,100813.13
2023-01-13T18:03:33.685Z,100800.34
2023-01-13T18:06:12.890Z,100802.48
2023-01-13T18:08:45.546Z,100792.27
2023-01-13T18:11:19.628Z,100794.09
2023-01-13T18:13:54.305Z,100781.90
2023-01-13T18:16:27.395Z,100780.66
2023-01-13T18:19:20.144Z,100780.89
2023-01-13T18:22:11.807Z,100784.67
2023-01-13T18:25:02.521Z,100772.74
2023-01-13T18:27:39.148Z,100776.64
2023-01-13T18:30:12.885Z,100780.73
2023-01-13T18:32:46.243Z,100777.66
2023-01-13T18:35:19.285Z,100779.30
2023-01-13T18:37:52.519Z,100773.05
2023-01-13T18:40:25.798Z,100774.20
2023-01-13T18:42:59.465Z,100776.81
2023-01-13T18:45:33.105Z,100773.27
2023-01-13T18:48:06.204Z,100774.59
2023-01-13T18:50:39.245Z,100766.30
2023-01-13T18:53:11.808Z,100776.11
2023-01-13T18:55:44.802Z,100776.95
2023-01-13T18:58:17.431Z,100777.35
2023-01-13T19:00:49.882Z,100777.84
2023-01-13T19:03:30.048Z,100775.22
2023-01-13T19:06:08.383Z,100779.21
2023-01-13T19:08:40.948Z,100780.11
2023-01-13T19:11:13.870Z,100785.03
2023-01-13T19:13:46.395Z,100784.00
2023-01-13T19:16:22.444Z,100782.23
2023-01-13T19:18:55.300Z,100790.52
2023-01-13T19:21:27.691Z,100791.90
2023-01-13T19:24:00.421Z,100787.69
2023-01-13T19:26:33.103Z,100785.95
2023-01-13T19:29:05.929Z,100795.18
2023-01-13T19:31:38.459Z,100793.66
2023-01-13T19:34:11.914Z,100794.95
2023-01-13T19:36:44.549Z,100791.84
2023-01-13T19:39:17.140Z,100792.73
2023-01-13T19:42:07.981Z,100796.73
2023-01-13T19:44:58.693Z,100802.05
2023-01-13T19:47:31.294Z,100796.28
2023-01-13T19:50:05.517Z,100799.30
2023-01-13T19:52:38.619Z,100791.41
2023-01-13T19:55:12.556Z,100790.12
2023-01-13T19:57:45.272Z,100790.12
2023-01-13T20:00:20.380Z,100786.53
2023-01-13T20:02:53.506Z,100780.80
2023-01-13T20:05:26.425Z,100778.09
2023-01-13T20:07:59.104Z,100783.42
2023-01-13T20:10:31.668Z,100788.12
2023-01-13T20:13:05.068Z,100785.37
2023-01-13T20:15:40.667Z,100791.52
2023-01-13T20:18:13.287Z,100796.35
2023-01-13T20:20:45.953Z,100795.42
2023-01-13T20:23:19.704Z,100794.09
2023-01-13T20:25:52.282Z,100794.09
2023-01-13T20:28:24.842Z,100794.93
2023-01-13T20:30:57.281Z,100790.94
2023-01-13T20:33:29.949Z,100789.70
2023-01-13T20:36:02.314Z,100792.86
2023-01-13T20:38:38.765Z,100789.70
2023-01-13T20:41:29.668Z,100791.83
2023-01-13T20:44:02.020Z,100790.41
2023-01-13T20:46:34.814Z,100799.58
2023-01-13T20:49:09.037Z,100799.03
2023-01-13T20:51:41.494Z,100797.80
2023-01-13T20:54:14.848Z,100806.14
2023-01-13T20:56:47.182Z,100802.15
2023-01-13T20:59:19.704Z,100798.61
2023-01-13T21:01:52.536Z,100801.27
2023-01-13T21:04:25.017Z,100795.89
2023-01-13T21:06:57.697Z,100795.34
2023-01-13T21:09:30.587Z,100807.33
2023-01-13T21:12:20.856Z,100803.39
2023-01-13T21:15:11.408Z,100804.86
2023-01-13T21:18:02.869Z,100799.13
2023-01-13T21:20:36.630Z,100806.37
2023-01-13T21:23:10.988Z,100796.26
2023-01-13T21:25:43.516Z,100791.73
2023-01-13T21:28:17.103Z,100795.63
2023-01-13T21:30:50.305Z,100789.33
2023-01-13T21:33:23.108Z,100797.37
2023-01-13T21:35:55.487Z,100793.02
2023-01-13T21:38:30.287Z,100779.85
2023-01-13T21:41:08.587Z,100775.86
2023-01-13T21:43:59.320Z,100788.32
2023-01-13T21:46:50.299Z,100782.47
2023-01-13T21:49:22.971Z,100790.41
2023-01-13T21:51:55.538Z,100789.95
2023-01-13T21:54:28.813Z,100791.23
2023-01-13T21:57:01.177Z,100798.61
2023-01-13T21:59:33.914Z,100792.83
2023-01-13T22:02:23.855Z,100799.03
2023-01-13T22:04:42.735Z,100803.48
2023-01-13T22:07:15.364Z,100800.38
2023-01-13T22:09:48.467Z,100799.34
2023-01-13T22:12:22.868Z,100795.34
2023-01-13T22:14:56.278Z,100806.66
2023-01-13T22:17:30.953Z,100798.52
2023-01-13T22:20:04.172Z,100796.11
2023-01-13T22:22:36.917Z,100792.07
2023-01-13T22:25:11.850Z,100798.13
2023-01-13T22:27:45.176Z,100800.34
2023-01-13T22:30:21.766Z,100790.94
2023-01-13T22:32:54.310Z,100791.42
2023-01-13T22:35:26.899Z,100787.33
2023-01-13T22:37:59.616Z,100787.68
2023-01-13T22:40:32.259Z,100782.85
2023-01-13T22:43:05.187Z,100787.68
2023-01-13T22:45:39.189Z,100788.28
2023-01-13T22:48:11.728Z,100782.15
2023-01-13T22:50:45.719Z,100781.27
2023-01-13T22:53:18.337Z,100777.75
2023-01-13T22:55:58.186Z,100774.76
2023-01-13T22:58:30.603Z,100770.52
2023-01-13T23:01:15.992Z,100767.00
2023-01-13T23:03:51.411Z,100778.55
2023-01-13T23:06:25.116Z,100765.96
2023-01-13T23:08:57.985Z,100767.80
2023-01-13T23:11:31.495Z,100778.54
2023-01-13T23:14:06.888Z,100780.70
2023-01-13T23:16:41.056Z,100779.28
2023-01-13T23:19:13.637Z,100771.23
2023-01-13T23:21:46.218Z,100761.23
2023-01-13T23:24:19.122Z,100765.23
2023-01-13T23:26:51.834Z,100778.15
2023-01-13T23:29:25.265Z,100772.52
2023-01-13T23:31:57.507Z,100764.63
2023-01-13T23:34:30.083Z,100762.27
2023-01-13T23:37:02.576Z,100759.91
2023-01-13T23:39:36.646Z,100768.83
2023-01-13T23:42:09.013Z,100768.83
2023-01-13T23:44:41.547Z,100759.61
2023-01-13T23:47:14.339Z,100751.52
2023-01-13T23:49:47.145Z,100748.45
2023-01-13T23:52:19.534Z,100744.03
2023-01-13T23:54:52.426Z,100745.45
2023-01-13T23:57:24.882Z,100757.30
2023-01-13T23:59:57.339Z,100751.02
